首页
METAR-TAF:

METAR-TAF

机场 :

巴拉德, 伊拉克

纬度: 33-56N, 经度: 44-22E, 海拔: 49米

当前天气观测

该预报发布于13分钟前的05:55 UTC
风速6节,风向
温度 31°C
湿度 16%
气压 1011 hPa
能见度10公里或以上
天空无云

METAR: ORBD 230555Z 35006KT 9999 SKC 31/02 A2986 RMK WND DATA ALSTG ESTMD

时间: 09:08 (06:08 UTC)

预报

该预报发布于3小时和28分钟前的02:40 UTC
预报有效从23日的 03点(UTC)到 24日的 09点(UTC)
风速9节,风向北转西北
能见度10公里或以上
天空无云
短暂存在
从 23日的 08点(UTC)到 23日的 14点(UTC)
风速12节,风向北转西北,有时为20节阵风,在西转西北东北之间变化
成为
从 23日的 21点(UTC)到 23日的 22点(UTC)
风速9节,风向东北
能见度10公里或以上
天空无云

TAF: ORBD 230240Z 2303/2409 34009KT 9999 SKC QNH2980INS TEMPO 2308/2314 34012G20KT WND 300V050 BECMG 2321/2322 04009KT 9999 SKC QNH2984INS TX39/2312Z TN23/2303Z

超过4000个机场的气象观测和天气预报(METAR&TAF报告)。

可查询的气象台以黄色和红色小点在地图上表示。

将鼠标移到小点上方,可查看气象台名称。

然后点击查看天气观测和预报。

如需切换地图:点击带黑十字的绿色按钮放大地图;点击带横线的绿色按钮缩小地图;或者点击绿色箭头查看邻近地区的地图。


METAR-TAF: